sensor_id;sensor_type;location;lat;lon;timestamp;pressure;altitude;pressure_sealevel;temperature;humidity
69909;BME280;57190;47.918;8.112;2023-01-31T00:00:04;91564.00;;;-0.74;80.07
69909;BME280;57190;47.918;8.112;2023-01-31T00:02:32;91568.06;;;-0.72;79.63
69909;BME280;57190;47.918;8.112;2023-01-31T00:04:58;91567.25;;;-0.72;79.78
69909;BME280;57190;47.918;8.112;2023-01-31T00:07:24;91564.00;;;-0.74;79.84
69909;BME280;57190;47.918;8.112;2023-01-31T00:09:50;91557.59;;;-0.72;79.81
69909;BME280;57190;47.918;8.112;2023-01-31T00:12:15;91546.63;;;-0.75;80.10
69909;BME280;57190;47.918;8.112;2023-01-31T00:14:41;91552.72;;;-0.75;80.16
69909;BME280;57190;47.918;8.112;2023-01-31T00:17:06;91545.59;;;-0.81;79.91
69909;BME280;57190;47.918;8.112;2023-01-31T00:19:32;91552.25;;;-0.78;80.17
69909;BME280;57190;47.918;8.112;2023-01-31T00:21:58;91541.50;;;-0.84;80.12
69909;BME280;57190;47.918;8.112;2023-01-31T00:24:23;91545.94;;;-0.84;80.00
69909;BME280;57190;47.918;8.112;2023-01-31T00:26:49;91545.13;;;-0.85;80.10
69909;BME280;57190;47.918;8.112;2023-01-31T00:29:23;91547.91;;;-0.86;80.15
69909;BME280;57190;47.918;8.112;2023-01-31T00:31:49;91544.69;;;-0.88;80.34
69909;BME280;57190;47.918;8.112;2023-01-31T00:34:15;91543.31;;;-0.84;80.53
69909;BME280;57190;47.918;8.112;2023-01-31T00:36:40;91543.50;;;-0.86;80.91
69909;BME280;57190;47.918;8.112;2023-01-31T00:39:07;91541.06;;;-0.87;81.16
69909;BME280;57190;47.918;8.112;2023-01-31T00:41:34;91544.13;;;-0.84;80.86
69909;BME280;57190;47.918;8.112;2023-01-31T00:44:00;91537.28;;;-0.85;80.81
69909;BME280;57190;47.918;8.112;2023-01-31T00:46:26;91537.44;;;-0.86;81.63
69909;BME280;57190;47.918;8.112;2023-01-31T00:48:53;91535.91;;;-0.81;81.26
69909;BME280;57190;47.918;8.112;2023-01-31T00:51:20;91528.41;;;-0.84;81.46
69909;BME280;57190;47.918;8.112;2023-01-31T00:53:45;91533.38;;;-0.89;81.34
69909;BME280;57190;47.918;8.112;2023-01-31T00:56:13;91535.81;;;-0.87;81.90
69909;BME280;57190;47.918;8.112;2023-01-31T00:58:39;91532.59;;;-0.89;81.58
69909;BME280;57190;47.918;8.112;2023-01-31T01:01:07;91539.25;;;-0.87;81.25
69909;BME280;57190;47.918;8.112;2023-01-31T01:03:33;91538.63;;;-0.89;81.51
69909;BME280;57190;47.918;8.112;2023-01-31T01:05:59;91536.19;;;-0.90;81.27
69909;BME280;57190;47.918;8.112;2023-01-31T01:08:24;91527.69;;;-0.92;81.28
69909;BME280;57190;47.918;8.112;2023-01-31T01:10:50;91533.72;;;-0.92;80.73
69909;BME280;57190;47.918;8.112;2023-01-31T01:13:15;91535.38;;;-0.91;81.01
69909;BME280;57190;47.918;8.112;2023-01-31T01:15:40;91531.59;;;-0.88;80.64
69909;BME280;57190;47.918;8.112;2023-01-31T01:18:06;91528.34;;;-0.90;81.48
69909;BME280;57190;47.918;8.112;2023-01-31T01:20:33;91530.31;;;-0.92;81.28
69909;BME280;57190;47.918;8.112;2023-01-31T01:22:59;91524.97;;;-0.99;81.32
69909;BME280;57190;47.918;8.112;2023-01-31T01:25:25;91521.38;;;-0.98;80.78
69909;BME280;57190;47.918;8.112;2023-01-31T01:27:50;91520.13;;;-1.02;80.94
69909;BME280;57190;47.918;8.112;2023-01-31T01:30:16;91524.91;;;-1.06;81.14
69909;BME280;57190;47.918;8.112;2023-01-31T01:32:42;91514.69;;;-1.16;81.01
69909;BME280;57190;47.918;8.112;2023-01-31T01:35:07;91514.44;;;-1.21;81.04
69909;BME280;57190;47.918;8.112;2023-01-31T01:37:34;91522.38;;;-1.29;81.04
69909;BME280;57190;47.918;8.112;2023-01-31T01:39:59;91524.44;;;-1.39;81.20
69909;BME280;57190;47.918;8.112;2023-01-31T01:42:25;91521.91;;;-1.48;80.69
69909;BME280;57190;47.918;8.112;2023-01-31T01:44:56;91530.47;;;-1.54;81.25
69909;BME280;57190;47.918;8.112;2023-01-31T01:47:39;91527.75;;;-1.61;80.46
69909;BME280;57190;47.918;8.112;2023-01-31T01:52:50;91517.53;;;-1.70;81.03
69909;BME280;57190;47.918;8.112;2023-01-31T01:55:38;91513.00;;;-1.77;80.94
69909;BME280;57190;47.918;8.112;2023-01-31T02:00:47;91509.38;;;-1.76;80.66
69909;BME280;57190;47.918;8.112;2023-01-31T02:03:13;91514.47;;;-1.74;80.65
69909;BME280;57190;47.918;8.112;2023-01-31T02:05:46;91506.78;;;-1.76;80.71
69909;BME280;57190;47.918;8.112;2023-01-31T02:08:17;91502.06;;;-1.80;80.79
69909;BME280;57190;47.918;8.112;2023-01-31T02:13:17;91520.75;;;-1.83;80.66
69909;BME280;57190;47.918;8.112;2023-01-31T02:15:44;91512.91;;;-1.83;80.98
69909;BME280;57190;47.918;8.112;2023-01-31T02:18:10;91514.69;;;-1.84;80.48
69909;BME280;57190;47.918;8.112;2023-01-31T02:24:05;91516.13;;;-1.96;80.38
69909;BME280;57190;47.918;8.112;2023-01-31T02:43:25;91504.34;;;-1.77;80.58
69909;BME280;57190;47.918;8.112;2023-01-31T02:46:07;91504.59;;;-1.72;80.51
69909;BME280;57190;47.918;8.112;2023-01-31T02:48:56;91508.31;;;-1.66;80.33
69909;BME280;57190;47.918;8.112;2023-01-31T02:51:36;91505.38;;;-1.63;80.73
69909;BME280;57190;47.918;8.112;2023-01-31T02:54:14;91507.09;;;-1.55;80.60
69909;BME280;57190;47.918;8.112;2023-01-31T02:56:44;91508.09;;;-1.56;80.52
69909;BME280;57190;47.918;8.112;2023-01-31T02:59:17;91511.78;;;-1.51;80.06
69909;BME280;57190;47.918;8.112;2023-01-31T03:01:50;91519.47;;;-1.49;80.18
69909;BME280;57190;47.918;8.112;2023-01-31T03:04:19;91522.09;;;-1.49;80.10
69909;BME280;57190;47.918;8.112;2023-01-31T03:06:56;91536.59;;;-1.47;80.10
69909;BME280;57190;47.918;8.112;2023-01-31T03:09:45;91535.63;;;-1.46;80.52
69909;BME280;57190;47.918;8.112;2023-01-31T03:12:31;91534.44;;;-1.43;80.48
69909;BME280;57190;47.918;8.112;2023-01-31T03:15:23;91531.81;;;-1.43;80.54
69909;BME280;57190;47.918;8.112;2023-01-31T03:18:16;91528.41;;;-1.44;79.93
69909;BME280;57190;47.918;8.112;2023-01-31T03:20:52;91535.81;;;-1.47;79.96
69909;BME280;57190;47.918;8.112;2023-01-31T03:23:22;91531.03;;;-1.44;79.78
69909;BME280;57190;47.918;8.112;2023-01-31T03:25:51;91541.94;;;-1.40;79.90
69909;BME280;57190;47.918;8.112;2023-01-31T03:28:22;91535.88;;;-1.40;79.89
69909;BME280;57190;47.918;8.112;2023-01-31T03:31:15;91534.97;;;-1.48;79.88
69909;BME280;57190;47.918;8.112;2023-01-31T03:33:47;91535.09;;;-1.41;79.57
69909;BME280;57190;47.918;8.112;2023-01-31T03:36:32;91535.88;;;-1.40;79.71
69909;BME280;57190;47.918;8.112;2023-01-31T03:39:36;91525.59;;;-1.42;79.79
69909;BME280;57190;47.918;8.112;2023-01-31T03:42:08;91527.59;;;-1.44;79.89
69909;BME280;57190;47.918;8.112;2023-01-31T03:47:35;91533.72;;;-1.37;79.98
69909;BME280;57190;47.918;8.112;2023-01-31T03:50:09;91539.16;;;-1.38;79.88
69909;BME280;57190;47.918;8.112;2023-01-31T03:53:06;91540.59;;;-1.36;79.63
69909;BME280;57190;47.918;8.112;2023-01-31T03:55:42;91545.81;;;-1.36;79.93
69909;BME280;57190;47.918;8.112;2023-01-31T03:58:09;91545.38;;;-1.39;79.90
69909;BME280;57190;47.918;8.112;2023-01-31T04:00:39;91541.94;;;-1.40;80.19
69909;BME280;57190;47.918;8.112;2023-01-31T04:03:21;91543.59;;;-1.39;79.91
69909;BME280;57190;47.918;8.112;2023-01-31T04:05:48;91537.16;;;-1.36;79.78
69909;BME280;57190;47.918;8.112;2023-01-31T04:08:15;91545.63;;;-1.34;79.38
69909;BME280;57190;47.918;8.112;2023-01-31T04:10:41;91540.50;;;-1.28;79.75
69909;BME280;57190;47.918;8.112;2023-01-31T04:13:06;91533.03;;;-1.31;79.92
69909;BME280;57190;47.918;8.112;2023-01-31T04:15:32;91519.31;;;-1.33;79.64
69909;BME280;57190;47.918;8.112;2023-01-31T04:17:57;91523.91;;;-1.35;80.09
69909;BME280;57190;47.918;8.112;2023-01-31T04:20:24;91514.41;;;-1.36;79.68
69909;BME280;57190;47.918;8.112;2023-01-31T04:22:49;91510.81;;;-1.35;79.50
69909;BME280;57190;47.918;8.112;2023-01-31T04:25:15;91522.91;;;-1.34;79.42
69909;BME280;57190;47.918;8.112;2023-01-31T04:27:40;91517.41;;;-1.39;79.50
69909;BME280;57190;47.918;8.112;2023-01-31T04:30:06;91525.88;;;-1.37;79.53
69909;BME280;57190;47.918;8.112;2023-01-31T04:32:32;91525.41;;;-1.40;79.78
69909;BME280;57190;47.918;8.112;2023-01-31T04:34:57;91531.47;;;-1.40;79.58
69909;BME280;57190;47.918;8.112;2023-01-31T04:37:23;91531.94;;;-1.36;79.85
69909;BME280;57190;47.918;8.112;2023-01-31T04:39:48;91539.16;;;-1.38;79.70
69909;BME280;57190;47.918;8.112;2023-01-31T04:42:14;91546.19;;;-1.39;79.80
69909;BME280;57190;47.918;8.112;2023-01-31T04:44:39;91550.06;;;-1.35;79.83
69909;BME280;57190;47.918;8.112;2023-01-31T04:47:05;91551.06;;;-1.36;79.83
69909;BME280;57190;47.918;8.112;2023-01-31T04:49:30;91551.88;;;-1.35;79.87
69909;BME280;57190;47.918;8.112;2023-01-31T04:51:56;91542.41;;;-1.36;79.89
69909;BME280;57190;47.918;8.112;2023-01-31T04:54:21;91553.66;;;-1.36;79.76
69909;BME280;57190;47.918;8.112;2023-01-31T04:56:46;91553.97;;;-1.31;79.76
69909;BME280;57190;47.918;8.112;2023-01-31T04:59:12;91556.75;;;-1.32;79.76
69909;BME280;57190;47.918;8.112;2023-01-31T05:01:37;91561.00;;;-1.31;79.44
69909;BME280;57190;47.918;8.112;2023-01-31T05:04:03;91554.50;;;-1.35;79.16
69909;BME280;57190;47.918;8.112;2023-01-31T05:06:28;91555.75;;;-1.31;79.43
69909;BME280;57190;47.918;8.112;2023-01-31T05:08:54;91565.44;;;-1.32;79.79
69909;BME280;57190;47.918;8.112;2023-01-31T05:11:19;91561.97;;;-1.32;79.92
69909;BME280;57190;47.918;8.112;2023-01-31T05:13:45;91561.97;;;-1.32;80.13
69909;BME280;57190;47.918;8.112;2023-01-31T05:16:11;91561.34;;;-1.34;79.39
69909;BME280;57190;47.918;8.112;2023-01-31T05:18:38;91559.38;;;-1.32;79.58
69909;BME280;57190;47.918;8.112;2023-01-31T05:21:05;91554.84;;;-1.38;79.20
69909;BME280;57190;47.918;8.112;2023-01-31T05:23:31;91550.16;;;-1.43;79.36
69909;BME280;57190;47.918;8.112;2023-01-31T05:25:57;91553.63;;;-1.51;79.72
69909;BME280;57190;47.918;8.112;2023-01-31T05:28:23;91551.22;;;-1.52;79.53
69909;BME280;57190;47.918;8.112;2023-01-31T05:30:51;91551.47;;;-1.62;79.64
69909;BME280;57190;47.918;8.112;2023-01-31T05:33:17;91558.56;;;-1.71;79.45
69909;BME280;57190;47.918;8.112;2023-01-31T05:35:48;91549.16;;;-1.80;79.50
69909;BME280;57190;47.918;8.112;2023-01-31T05:38:14;91555.28;;;-1.88;79.50
69909;BME280;57190;47.918;8.112;2023-01-31T05:40:39;91558.94;;;-1.97;79.83
69909;BME280;57190;47.918;8.112;2023-01-31T05:43:05;91553.94;;;-2.07;79.43
69909;BME280;57190;47.918;8.112;2023-01-31T05:45:31;91561.13;;;-2.09;79.38
69909;BME280;57190;47.918;8.112;2023-01-31T05:47:57;91567.06;;;-2.15;79.96
69909;BME280;57190;47.918;8.112;2023-01-31T05:50:22;91568.75;;;-2.23;79.75
69909;BME280;57190;47.918;8.112;2023-01-31T05:52:50;91565.66;;;-2.26;80.10
69909;BME280;57190;47.918;8.112;2023-01-31T05:55:16;91561.75;;;-2.30;80.27
69909;BME280;57190;47.918;8.112;2023-01-31T05:57:42;91565.91;;;-2.44;79.53
69909;BME280;57190;47.918;8.112;2023-01-31T06:00:08;91560.03;;;-2.46;79.81
69909;BME280;57190;47.918;8.112;2023-01-31T06:02:33;91557.94;;;-2.51;80.68
69909;BME280;57190;47.918;8.112;2023-01-31T06:04:59;91562.56;;;-2.53;80.17
69909;BME280;57190;47.918;8.112;2023-01-31T06:07:24;91560.91;;;-2.54;81.19
69909;BME280;57190;47.918;8.112;2023-01-31T06:09:50;91563.69;;;-2.56;80.51
69909;BME280;57190;47.918;8.112;2023-01-31T06:12:15;91563.91;;;-2.65;80.28
69909;BME280;57190;47.918;8.112;2023-01-31T06:14:40;91576.44;;;-2.61;80.17
69909;BME280;57190;47.918;8.112;2023-01-31T06:17:06;91578.94;;;-2.67;80.13
69909;BME280;57190;47.918;8.112;2023-01-31T06:19:32;91583.84;;;-2.73;80.01
69909;BME280;57190;47.918;8.112;2023-01-31T06:21:57;91584.19;;;-2.76;80.10
69909;BME280;57190;47.918;8.112;2023-01-31T06:24:22;91587.16;;;-2.79;80.54
69909;BME280;57190;47.918;8.112;2023-01-31T06:26:48;91587.31;;;-2.80;79.96
69909;BME280;57190;47.918;8.112;2023-01-31T06:29:13;91588.47;;;-2.83;80.17
69909;BME280;57190;47.918;8.112;2023-01-31T06:31:42;91588.63;;;-2.85;79.63
69909;BME280;57190;47.918;8.112;2023-01-31T06:34:10;91595.16;;;-2.89;79.81
69909;BME280;57190;47.918;8.112;2023-01-31T06:36:35;91603.00;;;-2.89;79.90
69909;BME280;57190;47.918;8.112;2023-01-31T06:39:01;91600.75;;;-2.92;80.06
69909;BME280;57190;47.918;8.112;2023-01-31T06:41:28;91605.13;;;-2.92;79.98
69909;BME280;57190;47.918;8.112;2023-01-31T06:43:54;91596.66;;;-2.94;80.24
69909;BME280;57190;47.918;8.112;2023-01-31T06:46:20;91605.59;;;-2.89;80.13
69909;BME280;57190;47.918;8.112;2023-01-31T06:48:45;91605.59;;;-2.89;79.93
69909;BME280;57190;47.918;8.112;2023-01-31T06:51:14;91601.72;;;-2.93;79.74
69909;BME280;57190;47.918;8.112;2023-01-31T06:53:42;91612.84;;;-2.99;79.97
69909;BME280;57190;47.918;8.112;2023-01-31T06:56:08;91611.69;;;-3.05;79.27
69909;BME280;57190;47.918;8.112;2023-01-31T06:58:34;91610.41;;;-3.09;79.46
69909;BME280;57190;47.918;8.112;2023-01-31T07:01:32;91606.63;;;-3.06;79.41
69909;BME280;57190;47.918;8.112;2023-01-31T07:03:58;91614.63;;;-3.00;79.33
69909;BME280;57190;47.918;8.112;2023-01-31T07:06:24;91600.78;;;-3.08;79.27
69909;BME280;57190;47.918;8.112;2023-01-31T07:08:58;91598.00;;;-3.07;78.61
69909;BME280;57190;47.918;8.112;2023-01-31T07:11:24;91598.28;;;-3.02;78.91
69909;BME280;57190;47.918;8.112;2023-01-31T07:13:50;91598.28;;;-2.93;78.44
69909;BME280;57190;47.918;8.112;2023-01-31T07:16:16;91605.47;;;-2.95;78.07
69909;BME280;57190;47.918;8.112;2023-01-31T07:18:43;91608.25;;;-2.97;78.22
69909;BME280;57190;47.918;8.112;2023-01-31T07:21:09;91602.38;;;-2.91;78.11
69909;BME280;57190;47.918;8.112;2023-01-31T07:23:35;91619.94;;;-2.76;78.00
69909;BME280;57190;47.918;8.112;2023-01-31T07:26:05;91614.19;;;-2.63;76.87
69909;BME280;57190;47.918;8.112;2023-01-31T07:28:31;91609.72;;;-2.55;76.73
69909;BME280;57190;47.918;8.112;2023-01-31T07:31:03;91610.03;;;-2.49;76.59
69909;BME280;57190;47.918;8.112;2023-01-31T07:33:31;91607.88;;;-2.38;76.21
69909;BME280;57190;47.918;8.112;2023-01-31T07:35:57;91598.03;;;-2.27;75.50
69909;BME280;57190;47.918;8.112;2023-01-31T07:38:22;91599.47;;;-2.01;75.45
69909;BME280;57190;47.918;8.112;2023-01-31T07:40:48;91601.94;;;-1.77;74.80
69909;BME280;57190;47.918;8.112;2023-01-31T07:43:13;91597.38;;;-1.21;73.23
69909;BME280;57190;47.918;8.112;2023-01-31T07:45:38;91601.41;;;0.44;69.82
69909;BME280;57190;47.918;8.112;2023-01-31T07:48:06;91600.38;;;3.03;64.13
69909;BME280;57190;47.918;8.112;2023-01-31T07:50:32;91600.50;;;4.21;62.71
69909;BME280;57190;47.918;8.112;2023-01-31T07:52:58;91598.88;;;5.41;59.28
69909;BME280;57190;47.918;8.112;2023-01-31T07:55:24;91590.69;;;7.15;55.25
69909;BME280;57190;47.918;8.112;2023-01-31T07:57:49;91589.22;;;9.81;50.10
69909;BME280;57190;47.918;8.112;2023-01-31T08:00:15;91593.03;;;10.47;44.15
69909;BME280;57190;47.918;8.112;2023-01-31T08:02:59;91594.38;;;11.86;40.16
69909;BME280;57190;47.918;8.112;2023-01-31T08:05:46;91601.28;;;13.42;38.41
69909;BME280;57190;47.918;8.112;2023-01-31T08:08:12;91596.06;;;14.59;36.91
69909;BME280;57190;47.918;8.112;2023-01-31T08:10:38;91596.06;;;14.59;36.92
69909;BME280;57190;47.918;8.112;2023-01-31T08:13:04;91602.28;;;15.65;32.81
69909;BME280;57190;47.918;8.112;2023-01-31T08:15:31;91595.03;;;16.34;30.64
69909;BME280;57190;47.918;8.112;2023-01-31T08:17:57;91600.25;;;18.04;27.81
69909;BME280;57190;47.918;8.112;2023-01-31T08:20:22;91590.16;;;18.57;26.59
69909;BME280;57190;47.918;8.112;2023-01-31T08:22:48;91587.75;;;19.53;26.62
69909;BME280;57190;47.918;8.112;2023-01-31T08:25:13;91596.47;;;21.09;24.89
69909;BME280;57190;47.918;8.112;2023-01-31T08:27:39;91590.31;;;21.35;23.07
69909;BME280;57190;47.918;8.112;2023-01-31T08:30:05;91605.59;;;21.13;22.45
69909;BME280;57190;47.918;8.112;2023-01-31T08:32:30;91611.53;;;22.35;22.32
69909;BME280;57190;47.918;8.112;2023-01-31T08:34:56;91608.63;;;22.57;20.76
69909;BME280;57190;47.918;8.112;2023-01-31T08:37:21;91603.13;;;20.71;23.15
69909;BME280;57190;47.918;8.112;2023-01-31T08:39:47;91604.19;;;22.09;21.54
69909;BME280;57190;47.918;8.112;2023-01-31T08:42:13;91602.25;;;22.27;20.81
69909;BME280;57190;47.918;8.112;2023-01-31T08:44:38;91609.16;;;23.07;20.63
69909;BME280;57190;47.918;8.112;2023-01-31T08:47:03;91606.03;;;24.16;19.91
69909;BME280;57190;47.918;8.112;2023-01-31T08:49:29;91594.22;;;24.67;19.25
69909;BME280;57190;47.918;8.112;2023-01-31T08:51:58;91595.97;;;24.50;19.33
69909;BME280;57190;47.918;8.112;2023-01-31T08:54:24;91591.72;;;24.40;19.32
69909;BME280;57190;47.918;8.112;2023-01-31T08:56:49;91594.53;;;23.29;21.49
69909;BME280;57190;47.918;8.112;2023-01-31T08:59:14;91585.53;;;24.86;18.83
69909;BME280;57190;47.918;8.112;2023-01-31T09:01:40;91584.53;;;23.93;19.53
69909;BME280;57190;47.918;8.112;2023-01-31T09:04:08;91575.41;;;24.53;18.64
69909;BME280;57190;47.918;8.112;2023-01-31T09:06:33;91576.44;;;24.27;18.62
69909;BME280;57190;47.918;8.112;2023-01-31T09:08:58;91578.59;;;23.70;19.54
69909;BME280;57190;47.918;8.112;2023-01-31T09:11:26;91566.31;;;21.95;20.73
69909;BME280;57190;47.918;8.112;2023-01-31T09:13:52;91581.38;;;20.85;22.22
69909;BME280;57190;47.918;8.112;2023-01-31T09:16:18;91583.50;;;21.55;21.08
69909;BME280;57190;47.918;8.112;2023-01-31T09:18:45;91585.44;;;22.69;20.33
69909;BME280;57190;47.918;8.112;2023-01-31T09:21:16;91575.81;;;20.91;22.14
69909;BME280;57190;47.918;8.112;2023-01-31T09:23:44;91585.06;;;17.70;26.02
69909;BME280;57190;47.918;8.112;2023-01-31T09:26:10;91577.31;;;15.59;29.13
69909;BME280;57190;47.918;8.112;2023-01-31T09:28:36;91584.28;;;14.55;30.84
69909;BME280;57190;47.918;8.112;2023-01-31T09:31:06;91581.59;;;14.50;31.57
69909;BME280;57190;47.918;8.112;2023-01-31T09:33:33;91584.09;;;15.06;31.55
69909;BME280;57190;47.918;8.112;2023-01-31T09:36:06;91587.84;;;15.55;27.91
69909;BME280;57190;47.918;8.112;2023-01-31T09:38:34;91571.19;;;17.77;26.77
69909;BME280;57190;47.918;8.112;2023-01-31T09:41:04;91586.34;;;18.58;25.46
69909;BME280;57190;47.918;8.112;2023-01-31T09:43:34;91577.53;;;15.68;27.32
69909;BME280;57190;47.918;8.112;2023-01-31T09:46:05;91577.41;;;13.40;30.40
69909;BME280;57190;47.918;8.112;2023-01-31T09:48:36;91587.13;;;12.78;31.74
69909;BME280;57190;47.918;8.112;2023-01-31T09:51:04;91578.13;;;17.83;26.08
69909;BME280;57190;47.918;8.112;2023-01-31T09:53:34;91571.97;;;16.77;26.88
69909;BME280;57190;47.918;8.112;2023-01-31T10:09:42;91583.50;;;19.10;23.03
69909;BME280;57190;47.918;8.112;2023-01-31T10:12:20;91568.88;;;18.69;23.08
69909;BME280;57190;47.918;8.112;2023-01-31T10:15:04;91568.84;;;17.89;23.54
69909;BME280;57190;47.918;8.112;2023-01-31T10:17:42;91571.28;;;14.88;27.83
69909;BME280;57190;47.918;8.112;2023-01-31T10:20:18;91578.88;;;12.84;30.71
69909;BME280;57190;47.918;8.112;2023-01-31T10:22:51;91569.00;;;11.51;32.79
69909;BME280;57190;47.918;8.112;2023-01-31T10:27:51;91563.81;;;10.79;34.78
69909;BME280;57190;47.918;8.112;2023-01-31T10:30:24;91574.06;;;12.86;31.79
69909;BME280;57190;47.918;8.112;2023-01-31T10:33:13;91574.16;;;14.31;29.55
69909;BME280;57190;47.918;8.112;2023-01-31T10:35:44;91569.38;;;13.61;30.31
69909;BME280;57190;47.918;8.112;2023-01-31T10:38:18;91574.91;;;12.39;32.19
69909;BME280;57190;47.918;8.112;2023-01-31T10:40:50;91576.09;;;12.05;32.65
69909;BME280;57190;47.918;8.112;2023-01-31T10:43:48;91574.22;;;11.36;32.75
69909;BME280;57190;47.918;8.112;2023-01-31T10:46:12;91562.72;;;10.53;35.21
69909;BME280;57190;47.918;8.112;2023-01-31T10:48:41;91565.84;;;10.28;36.08
69909;BME280;57190;47.918;8.112;2023-01-31T10:54:15;91560.81;;;10.31;37.06
69909;BME280;57190;47.918;8.112;2023-01-31T10:56:46;91550.94;;;9.87;36.95
69909;BME280;57190;47.918;8.112;2023-01-31T10:59:24;91549.84;;;8.98;38.28
69909;BME280;57190;47.918;8.112;2023-01-31T11:01:50;91542.81;;;8.34;40.32
69909;BME280;57190;47.918;8.112;2023-01-31T11:04:31;91545.56;;;7.86;41.65
69909;BME280;57190;47.918;8.112;2023-01-31T11:06:59;91552.41;;;7.70;42.11
69909;BME280;57190;47.918;8.112;2023-01-31T11:09:28;91543.50;;;7.77;41.95
69909;BME280;57190;47.918;8.112;2023-01-31T11:12:00;91542.84;;;7.34;43.36
69909;BME280;57190;47.918;8.112;2023-01-31T11:14:27;91536.34;;;7.06;43.54
69909;BME280;57190;47.918;8.112;2023-01-31T11:17:00;91535.91;;;7.09;43.80
69909;BME280;57190;47.918;8.112;2023-01-31T11:19:34;91544.28;;;6.94;43.72
69909;BME280;57190;47.918;8.112;2023-01-31T11:22:02;91547.97;;;6.51;44.45
69909;BME280;57190;47.918;8.112;2023-01-31T11:24:30;91556.19;;;6.31;44.92
69909;BME280;57190;47.918;8.112;2023-01-31T11:27:05;91558.06;;;6.11;45.73
69909;BME280;57190;47.918;8.112;2023-01-31T11:29:36;91559.50;;;5.89;46.59
69909;BME280;57190;47.918;8.112;2023-01-31T11:32:05;91558.84;;;5.93;46.79
69909;BME280;57190;47.918;8.112;2023-01-31T11:34:36;91555.53;;;5.98;46.88
69909;BME280;57190;47.918;8.112;2023-01-31T11:37:13;91547.78;;;6.03;47.42
69909;BME280;57190;47.918;8.112;2023-01-31T11:39:39;91538.22;;;6.02;47.02
69909;BME280;57190;47.918;8.112;2023-01-31T11:42:07;91550.19;;;6.23;47.02
69909;BME280;57190;47.918;8.112;2023-01-31T11:44:36;91552.47;;;6.50;46.34
69909;BME280;57190;47.918;8.112;2023-01-31T11:47:03;91559.47;;;6.14;47.64
69909;BME280;57190;47.918;8.112;2023-01-31T11:49:38;91562.09;;;5.95;48.29
69909;BME280;57190;47.918;8.112;2023-01-31T11:52:13;91554.28;;;5.63;49.53
69909;BME280;57190;47.918;8.112;2023-01-31T11:54:44;91563.03;;;5.64;49.10
69909;BME280;57190;47.918;8.112;2023-01-31T11:57:21;91557.53;;;5.65;49.61
69909;BME280;57190;47.918;8.112;2023-01-31T11:59:51;91542.47;;;5.85;50.09
69909;BME280;57190;47.918;8.112;2023-01-31T12:02:34;91540.63;;;6.04;49.53
69909;BME280;57190;47.918;8.112;2023-01-31T12:05:07;91528.88;;;6.00;49.08
69909;BME280;57190;47.918;8.112;2023-01-31T12:07:42;91528.56;;;5.52;48.98
69909;BME280;57190;47.918;8.112;2023-01-31T12:10:32;91527.53;;;5.90;48.76
69909;BME280;57190;47.918;8.112;2023-01-31T12:13:00;91544.06;;;5.67;48.51
69909;BME280;57190;47.918;8.112;2023-01-31T12:15:27;91544.50;;;5.64;49.05
69909;BME280;57190;47.918;8.112;2023-01-31T12:17:54;91536.81;;;5.81;49.13
69909;BME280;57190;47.918;8.112;2023-01-31T12:23:23;91524.00;;;5.78;48.50
69909;BME280;57190;47.918;8.112;2023-01-31T12:25:48;91520.09;;;5.80;47.70
69909;BME280;57190;47.918;8.112;2023-01-31T12:28:41;91519.44;;;5.48;47.80
69909;BME280;57190;47.918;8.112;2023-01-31T12:31:32;91519.72;;;5.21;48.33
69909;BME280;57190;47.918;8.112;2023-01-31T12:34:53;91514.69;;;5.13;49.71
69909;BME280;57190;47.918;8.112;2023-01-31T12:42:58;91479.59;;;5.06;49.01
69909;BME280;57190;47.918;8.112;2023-01-31T12:45:50;91471.06;;;5.03;48.76
69909;BME280;57190;47.918;8.112;2023-01-31T12:51:49;91478.75;;;5.05;50.24
69909;BME280;57190;47.918;8.112;2023-01-31T13:02:17;91478.25;;;4.71;51.83
69909;BME280;57190;47.918;8.112;2023-01-31T13:04:56;91488.88;;;4.64;51.12
69909;BME280;57190;47.918;8.112;2023-01-31T13:07:32;91484.59;;;4.38;51.99
69909;BME280;57190;47.918;8.112;2023-01-31T13:10:03;91486.81;;;4.09;52.76
69909;BME280;57190;47.918;8.112;2023-01-31T13:12:32;91496.13;;;3.80;54.21
69909;BME280;57190;47.918;8.112;2023-01-31T13:15:37;91485.22;;;3.62;55.21
69909;BME280;57190;47.918;8.112;2023-01-31T13:18:05;91486.28;;;3.48;55.46
69909;BME280;57190;47.918;8.112;2023-01-31T13:20:39;91473.97;;;3.35;56.38
69909;BME280;57190;47.918;8.112;2023-01-31T13:23:12;91463.88;;;3.19;56.95
69909;BME280;57190;47.918;8.112;2023-01-31T13:25:48;91462.47;;;3.09;57.41
69909;BME280;57190;47.918;8.112;2023-01-31T13:28:20;91465.72;;;3.05;57.40
69909;BME280;57190;47.918;8.112;2023-01-31T13:30:54;91470.81;;;2.93;58.35
69909;BME280;57190;47.918;8.112;2023-01-31T13:33:33;91466.34;;;3.07;58.18
69909;BME280;57190;47.918;8.112;2023-01-31T13:36:21;91476.03;;;3.13;57.82
69909;BME280;57190;47.918;8.112;2023-01-31T13:38:48;91478.50;;;3.01;58.59
69909;BME280;57190;47.918;8.112;2023-01-31T13:41:31;91482.41;;;2.85;59.06
69909;BME280;57190;47.918;8.112;2023-01-31T13:43:57;91496.19;;;2.74;59.75
69909;BME280;57190;47.918;8.112;2023-01-31T13:46:37;91484.44;;;2.70;58.76
69909;BME280;57190;47.918;8.112;2023-01-31T13:49:14;91471.88;;;2.78;58.86
69909;BME280;57190;47.918;8.112;2023-01-31T13:51:46;91467.59;;;2.84;59.29
69909;BME280;57190;47.918;8.112;2023-01-31T13:54:18;91473.25;;;2.94;58.88
69909;BME280;57190;47.918;8.112;2023-01-31T13:56:53;91466.50;;;3.12;58.08
69909;BME280;57190;47.918;8.112;2023-01-31T13:59:23;91461.81;;;3.27;57.66
69909;BME280;57190;47.918;8.112;2023-01-31T14:01:50;91457.19;;;3.16;58.50
69909;BME280;57190;47.918;8.112;2023-01-31T14:09:38;91455.25;;;2.58;59.48
69909;BME280;57190;47.918;8.112;2023-01-31T14:14:52;91448.72;;;2.87;59.20
69909;BME280;57190;47.918;8.112;2023-01-31T14:22:26;91451.53;;;2.99;58.51
69909;BME280;57190;47.918;8.112;2023-01-31T14:24:57;91450.56;;;2.73;58.59
69909;BME280;57190;47.918;8.112;2023-01-31T14:30:37;91461.31;;;2.78;59.07
69909;BME280;57190;47.918;8.112;2023-01-31T14:35:57;91450.56;;;2.73;58.99
69909;BME280;57190;47.918;8.112;2023-01-31T14:54:58;91441.06;;;2.52;57.99
69909;BME280;57190;47.918;8.112;2023-01-31T14:57:30;91431.59;;;2.44;56.91
69909;BME280;57190;47.918;8.112;2023-01-31T15:00:45;91428.34;;;2.42;57.20
69909;BME280;57190;47.918;8.112;2023-01-31T15:05:50;91427.31;;;2.16;57.53